Eurico de Aguiar Salles Airport
SBVT : rendu visible

Aérodrome :











RETROUVEZ-NOUS SUR...

 
LOGIN :

S'inscrire | Disclaimer

   EN    FR    IT 

 









Légende :    VFR   VFR Marginal   IFR   IFR Intensif   IFR Très Intensif
Visi : 
Plafond : 
>= 8 km
>= 3000ft
5 à 8 km
1000 à 3000 ft
1500m à 5 km
500 à 1000 ft
800 à 1500m
200 à 500 ft
< 800m
< 200 ft
Symboles :   Orages  Brouillard  Fortes neiges  Fortes précipitations  Vent > 20 kt






- Altitude de l'aérodrome : 11 ft
- Code IATA : VIX


SBVT - Eurico de Aguiar Salles

DERNIER METAR :
  • 270300Z 01002KT CAVOK 18/17 Q1014

METARs EXPIRÉS :
  • 270200Z 32004KT CAVOK 18/17 Q1014
  • 270100Z 33002KT 9999 SCT040 18/18 Q1014

TAF TAF SBVT
Valide du 27 à 00h jusqu'au 28 à 00h UTC


262100Z 2700/2724 34005KT CAVOK TN20/2709Z TX25/2718Z
BECMG 2709/2711 27005KT
BECMG 2713/2715 17008KT 9999 FEW020
BECMG 2717/2719 17012KT CAVOK
BECMG 2721/2723 19003KT RMK PAY
FIR SBCW / Amérique du Sud



MET'MAP, la Météo Aéronautique d'un coup d'oeil ! - Copyright ORBIFLY Décembre 2007 - Disclaimer

ORBIFLY MET'MAP TEAM :

Programmation & Développement : Alexandra Zaïnal
Sur une idée originale de : Baudouin d'Aumeries
Assistance à la programmation : Marc-Olivier Méhu
Soutien technique & logistique : Manuel Goepfert

Contact : metmap@orbifly.com




SOURCES & CREDITS :

   NOAA       Earth
Advisory